Terminal Aerodrome Forecast
Issued by NWS North Platte, NE

Home | Current Version | Previous Version | Graphics & Text | Print | Product List | Glossary On
Versions: 1 2 3 4 5 6 7 8 9 10 11 12 13 14 15 16 17 18 19 20 21 22
000
FTUS43 KLBF 212321
TAFVTN
TAF
KVTN 212321Z 2200/2224 16014KT P6SM SKC
     FM220200 13010KT P6SM SKC
     FM220400 17010KT P6SM SKC WS015/19045KT
     FM221200 22011KT P6SM FEW250
     FM221800 27011KT P6SM FEW250=

USA.gov is the U.S. government's official web portal to all federal, state and local government web resources and services.